sensor_id;sensor_type;location;lat;lon;timestamp;P1;durP1;ratioP1;P2;durP2;ratioP2
359;SDS011;168;48.872;9.226;2023-08-24T00:01:54;12.20;;;11.10;;
359;SDS011;168;48.872;9.226;2023-08-24T00:04:22;13.80;;;12.60;;
359;SDS011;168;48.872;9.226;2023-08-24T00:06:49;13.20;;;11.90;;
359;SDS011;168;48.872;9.226;2023-08-24T00:09:17;11.90;;;10.80;;
359;SDS011;168;48.872;9.226;2023-08-24T00:11:44;12.70;;;11.50;;
359;SDS011;168;48.872;9.226;2023-08-24T00:14:12;12.67;;;11.57;;
359;SDS011;168;48.872;9.226;2023-08-24T00:16:39;12.10;;;11.10;;
359;SDS011;168;48.872;9.226;2023-08-24T00:19:08;12.60;;;11.50;;
359;SDS011;168;48.872;9.226;2023-08-24T00:21:36;13.03;;;11.83;;
359;SDS011;168;48.872;9.226;2023-08-24T00:24:04;12.37;;;11.37;;
359;SDS011;168;48.872;9.226;2023-08-24T00:26:31;11.50;;;10.50;;
359;SDS011;168;48.872;9.226;2023-08-24T00:28:59;12.20;;;11.10;;
359;SDS011;168;48.872;9.226;2023-08-24T00:31:26;14.17;;;12.97;;
359;SDS011;168;48.872;9.226;2023-08-24T00:33:53;12.33;;;11.27;;
359;SDS011;168;48.872;9.226;2023-08-24T00:36:21;13.23;;;12.13;;
359;SDS011;168;48.872;9.226;2023-08-24T00:38:49;12.20;;;11.20;;
359;SDS011;168;48.872;9.226;2023-08-24T00:41:18;13.50;;;12.40;;
359;SDS011;168;48.872;9.226;2023-08-24T00:43:47;13.53;;;12.30;;
359;SDS011;168;48.872;9.226;2023-08-24T00:46:15;13.83;;;12.60;;
359;SDS011;168;48.872;9.226;2023-08-24T00:48:44;13.37;;;12.30;;
359;SDS011;168;48.872;9.226;2023-08-24T00:51:11;13.60;;;12.50;;
359;SDS011;168;48.872;9.226;2023-08-24T00:53:40;13.10;;;12.03;;
359;SDS011;168;48.872;9.226;2023-08-24T00:56:07;13.70;;;12.60;;
359;SDS011;168;48.872;9.226;2023-08-24T00:58:35;13.60;;;12.50;;
359;SDS011;168;48.872;9.226;2023-08-24T01:01:02;12.73;;;11.73;;
359;SDS011;168;48.872;9.226;2023-08-24T01:03:30;13.30;;;12.23;;
359;SDS011;168;48.872;9.226;2023-08-24T01:05:58;13.17;;;12.17;;
359;SDS011;168;48.872;9.226;2023-08-24T01:08:25;12.90;;;11.90;;
359;SDS011;168;48.872;9.226;2023-08-24T01:10:56;11.37;;;10.37;;
359;SDS011;168;48.872;9.226;2023-08-24T01:13:30;13.17;;;11.87;;
359;SDS011;168;48.872;9.226;2023-08-24T01:16:04;11.40;;;10.50;;
359;SDS011;168;48.872;9.226;2023-08-24T01:18:38;12.63;;;11.53;;
359;SDS011;168;48.872;9.226;2023-08-24T01:21:08;11.80;;;10.63;;
359;SDS011;168;48.872;9.226;2023-08-24T01:23:36;11.43;;;10.47;;
359;SDS011;168;48.872;9.226;2023-08-24T01:26:14;11.77;;;10.67;;
359;SDS011;168;48.872;9.226;2023-08-24T01:28:43;10.70;;;9.80;;
359;SDS011;168;48.872;9.226;2023-08-24T01:31:12;11.27;;;10.43;;
359;SDS011;168;48.872;9.226;2023-08-24T01:33:41;10.97;;;9.97;;
359;SDS011;168;48.872;9.226;2023-08-24T01:36:09;12.17;;;11.20;;
359;SDS011;168;48.872;9.226;2023-08-24T01:38:39;12.33;;;11.20;;
359;SDS011;168;48.872;9.226;2023-08-24T01:41:09;12.10;;;11.03;;
359;SDS011;168;48.872;9.226;2023-08-24T01:43:41;11.60;;;10.70;;
359;SDS011;168;48.872;9.226;2023-08-24T01:46:13;12.60;;;11.40;;
359;SDS011;168;48.872;9.226;2023-08-24T01:48:42;11.47;;;10.57;;
359;SDS011;168;48.872;9.226;2023-08-24T01:51:11;12.97;;;11.83;;
359;SDS011;168;48.872;9.226;2023-08-24T01:53:41;11.67;;;10.70;;
359;SDS011;168;48.872;9.226;2023-08-24T01:56:09;12.80;;;11.77;;
359;SDS011;168;48.872;9.226;2023-08-24T01:58:37;12.40;;;11.37;;
359;SDS011;168;48.872;9.226;2023-08-24T02:01:06;12.40;;;11.20;;
359;SDS011;168;48.872;9.226;2023-08-24T02:03:33;12.47;;;11.47;;
359;SDS011;168;48.872;9.226;2023-08-24T02:06:01;12.40;;;11.40;;
359;SDS011;168;48.872;9.226;2023-08-24T02:08:28;12.10;;;11.20;;
359;SDS011;168;48.872;9.226;2023-08-24T02:10:56;12.80;;;11.73;;
359;SDS011;168;48.872;9.226;2023-08-24T02:13:23;12.53;;;11.63;;
359;SDS011;168;48.872;9.226;2023-08-24T02:15:51;12.10;;;11.20;;
359;SDS011;168;48.872;9.226;2023-08-24T02:18:29;13.73;;;12.50;;
359;SDS011;168;48.872;9.226;2023-08-24T02:20:56;13.87;;;12.73;;
359;SDS011;168;48.872;9.226;2023-08-24T02:23:24;13.60;;;12.37;;
359;SDS011;168;48.872;9.226;2023-08-24T02:25:51;13.70;;;12.50;;
359;SDS011;168;48.872;9.226;2023-08-24T02:28:19;13.40;;;12.23;;
359;SDS011;168;48.872;9.226;2023-08-24T02:30:46;13.97;;;12.87;;
359;SDS011;168;48.872;9.226;2023-08-24T02:33:13;14.60;;;13.40;;
359;SDS011;168;48.872;9.226;2023-08-24T02:35:42;14.07;;;12.77;;
359;SDS011;168;48.872;9.226;2023-08-24T02:38:10;14.60;;;13.30;;
359;SDS011;168;48.872;9.226;2023-08-24T02:40:37;13.57;;;12.37;;
359;SDS011;168;48.872;9.226;2023-08-24T02:43:05;13.77;;;12.50;;
359;SDS011;168;48.872;9.226;2023-08-24T02:45:33;12.70;;;11.40;;
359;SDS011;168;48.872;9.226;2023-08-24T02:48:00;13.30;;;12.30;;
359;SDS011;168;48.872;9.226;2023-08-24T02:50:27;13.23;;;12.27;;
359;SDS011;168;48.872;9.226;2023-08-24T02:52:56;13.23;;;12.17;;
359;SDS011;168;48.872;9.226;2023-08-24T02:55:24;13.60;;;12.50;;
359;SDS011;168;48.872;9.226;2023-08-24T02:57:51;14.73;;;13.17;;
359;SDS011;168;48.872;9.226;2023-08-24T03:00:19;12.97;;;11.80;;
359;SDS011;168;48.872;9.226;2023-08-24T03:02:46;12.10;;;11.20;;
359;SDS011;168;48.872;9.226;2023-08-24T03:05:14;12.53;;;11.50;;
359;SDS011;168;48.872;9.226;2023-08-24T03:07:41;14.00;;;12.77;;
359;SDS011;168;48.872;9.226;2023-08-24T03:10:10;12.83;;;11.73;;
359;SDS011;168;48.872;9.226;2023-08-24T03:12:37;14.10;;;12.90;;
359;SDS011;168;48.872;9.226;2023-08-24T03:15:05;13.17;;;12.07;;
359;SDS011;168;48.872;9.226;2023-08-24T03:17:33;13.27;;;12.07;;
359;SDS011;168;48.872;9.226;2023-08-24T03:20:00;14.00;;;12.73;;
359;SDS011;168;48.872;9.226;2023-08-24T03:22:28;13.73;;;12.70;;
359;SDS011;168;48.872;9.226;2023-08-24T03:24:55;14.23;;;13.03;;
359;SDS011;168;48.872;9.226;2023-08-24T03:27:24;14.87;;;13.47;;
359;SDS011;168;48.872;9.226;2023-08-24T03:29:51;14.40;;;13.20;;
359;SDS011;168;48.872;9.226;2023-08-24T03:32:19;13.70;;;12.70;;
359;SDS011;168;48.872;9.226;2023-08-24T03:34:47;13.70;;;12.27;;
359;SDS011;168;48.872;9.226;2023-08-24T03:37:14;13.77;;;12.67;;
359;SDS011;168;48.872;9.226;2023-08-24T03:39:41;13.53;;;12.43;;
359;SDS011;168;48.872;9.226;2023-08-24T03:42:09;13.70;;;12.60;;
359;SDS011;168;48.872;9.226;2023-08-24T03:44:37;14.77;;;13.37;;
359;SDS011;168;48.872;9.226;2023-08-24T03:47:05;12.90;;;11.87;;
359;SDS011;168;48.872;9.226;2023-08-24T03:49:32;13.60;;;12.50;;
359;SDS011;168;48.872;9.226;2023-08-24T03:51:59;14.83;;;13.57;;
359;SDS011;168;48.872;9.226;2023-08-24T03:54:28;13.33;;;12.13;;
359;SDS011;168;48.872;9.226;2023-08-24T03:56:55;15.17;;;14.07;;
359;SDS011;168;48.872;9.226;2023-08-24T03:59:23;13.40;;;12.50;;
359;SDS011;168;48.872;9.226;2023-08-24T04:01:51;15.20;;;14.10;;
359;SDS011;168;48.872;9.226;2023-08-24T04:04:19;15.57;;;14.17;;
359;SDS011;168;48.872;9.226;2023-08-24T04:06:46;14.97;;;13.67;;
359;SDS011;168;48.872;9.226;2023-08-24T04:09:14;14.13;;;13.03;;
359;SDS011;168;48.872;9.226;2023-08-24T04:11:42;16.20;;;14.53;;
359;SDS011;168;48.872;9.226;2023-08-24T04:14:09;13.30;;;12.20;;
359;SDS011;168;48.872;9.226;2023-08-24T04:16:36;14.03;;;12.53;;
359;SDS011;168;48.872;9.226;2023-08-24T04:19:05;13.53;;;12.53;;
359;SDS011;168;48.872;9.226;2023-08-24T04:21:32;13.07;;;11.93;;
359;SDS011;168;48.872;9.226;2023-08-24T04:24:00;13.83;;;12.83;;
359;SDS011;168;48.872;9.226;2023-08-24T04:26:28;13.27;;;12.17;;
359;SDS011;168;48.872;9.226;2023-08-24T04:28:55;14.40;;;13.20;;
359;SDS011;168;48.872;9.226;2023-08-24T04:31:22;12.50;;;11.50;;
359;SDS011;168;48.872;9.226;2023-08-24T04:33:50;12.83;;;11.70;;
359;SDS011;168;48.872;9.226;2023-08-24T04:36:18;13.20;;;12.00;;
359;SDS011;168;48.872;9.226;2023-08-24T04:38:46;12.30;;;11.40;;
359;SDS011;168;48.872;9.226;2023-08-24T04:41:13;13.23;;;12.13;;
359;SDS011;168;48.872;9.226;2023-08-24T04:43:41;12.97;;;11.97;;
359;SDS011;168;48.872;9.226;2023-08-24T04:46:08;12.57;;;11.47;;
359;SDS011;168;48.872;9.226;2023-08-24T04:48:35;13.03;;;11.90;;
359;SDS011;168;48.872;9.226;2023-08-24T04:51:03;12.27;;;11.27;;
359;SDS011;168;48.872;9.226;2023-08-24T04:53:31;12.47;;;11.50;;
359;SDS011;168;48.872;9.226;2023-08-24T04:55:59;12.30;;;11.23;;
359;SDS011;168;48.872;9.226;2023-08-24T04:58:27;12.47;;;11.50;;
359;SDS011;168;48.872;9.226;2023-08-24T05:00:54;13.87;;;12.63;;
359;SDS011;168;48.872;9.226;2023-08-24T05:03:22;12.93;;;11.93;;
359;SDS011;168;48.872;9.226;2023-08-24T05:05:49;12.53;;;11.63;;
359;SDS011;168;48.872;9.226;2023-08-24T05:08:16;12.20;;;11.20;;
359;SDS011;168;48.872;9.226;2023-08-24T05:10:45;13.33;;;12.30;;
359;SDS011;168;48.872;9.226;2023-08-24T05:13:12;12.40;;;11.50;;
359;SDS011;168;48.872;9.226;2023-08-24T05:15:40;13.27;;;11.97;;
359;SDS011;168;48.872;9.226;2023-08-24T05:18:07;12.67;;;11.70;;
359;SDS011;168;48.872;9.226;2023-08-24T05:20:34;12.93;;;11.83;;
359;SDS011;168;48.872;9.226;2023-08-24T05:23:02;12.60;;;11.40;;
359;SDS011;168;48.872;9.226;2023-08-24T05:25:29;12.53;;;11.63;;
359;SDS011;168;48.872;9.226;2023-08-24T05:27:58;12.50;;;11.50;;
359;SDS011;168;48.872;9.226;2023-08-24T05:30:26;12.73;;;11.73;;
359;SDS011;168;48.872;9.226;2023-08-24T05:32:54;11.80;;;10.90;;
359;SDS011;168;48.872;9.226;2023-08-24T05:35:22;16.20;;;11.73;;
359;SDS011;168;48.872;9.226;2023-08-24T05:37:49;12.57;;;11.57;;
359;SDS011;168;48.872;9.226;2023-08-24T05:40:16;11.77;;;10.87;;
359;SDS011;168;48.872;9.226;2023-08-24T05:42:44;12.73;;;11.73;;
359;SDS011;168;48.872;9.226;2023-08-24T05:45:13;11.83;;;10.73;;
359;SDS011;168;48.872;9.226;2023-08-24T05:47:40;11.90;;;11.00;;
359;SDS011;168;48.872;9.226;2023-08-24T05:50:07;11.50;;;10.60;;
359;SDS011;168;48.872;9.226;2023-08-24T05:52:37;12.47;;;11.27;;
359;SDS011;168;48.872;9.226;2023-08-24T05:55:04;11.77;;;10.77;;
359;SDS011;168;48.872;9.226;2023-08-24T05:57:32;10.83;;;9.93;;
359;SDS011;168;48.872;9.226;2023-08-24T05:59:59;11.53;;;10.60;;
359;SDS011;168;48.872;9.226;2023-08-24T06:02:28;11.03;;;10.20;;
359;SDS011;168;48.872;9.226;2023-08-24T06:04:56;11.13;;;10.17;;
359;SDS011;168;48.872;9.226;2023-08-24T06:07:23;11.23;;;10.27;;
359;SDS011;168;48.872;9.226;2023-08-24T06:09:51;11.30;;;10.23;;
359;SDS011;168;48.872;9.226;2023-08-24T06:12:18;11.20;;;10.27;;
359;SDS011;168;48.872;9.226;2023-08-24T06:14:46;10.70;;;9.70;;
359;SDS011;168;48.872;9.226;2023-08-24T06:17:13;11.53;;;10.63;;
359;SDS011;168;48.872;9.226;2023-08-24T06:19:42;10.37;;;9.57;;
359;SDS011;168;48.872;9.226;2023-08-24T06:22:09;9.40;;;8.63;;
359;SDS011;168;48.872;9.226;2023-08-24T06:24:37;9.40;;;8.70;;
359;SDS011;168;48.872;9.226;2023-08-24T06:27:04;9.83;;;9.03;;
359;SDS011;168;48.872;9.226;2023-08-24T06:29:31;9.77;;;9.00;;
359;SDS011;168;48.872;9.226;2023-08-24T06:31:59;8.80;;;7.90;;
359;SDS011;168;48.872;9.226;2023-08-24T06:34:26;9.13;;;8.43;;
359;SDS011;168;48.872;9.226;2023-08-24T06:36:55;9.07;;;8.37;;
359;SDS011;168;48.872;9.226;2023-08-24T06:39:28;9.13;;;7.70;;
359;SDS011;168;48.872;9.226;2023-08-24T06:41:55;10.77;;;9.50;;
359;SDS011;168;48.872;9.226;2023-08-24T06:44:22;10.67;;;9.70;;
359;SDS011;168;48.872;9.226;2023-08-24T06:46:50;11.40;;;10.40;;
359;SDS011;168;48.872;9.226;2023-08-24T06:49:17;11.87;;;10.63;;
359;SDS011;168;48.872;9.226;2023-08-24T06:51:45;10.53;;;9.67;;
359;SDS011;168;48.872;9.226;2023-08-24T06:54:14;10.90;;;9.87;;
359;SDS011;168;48.872;9.226;2023-08-24T06:56:41;11.30;;;9.97;;
359;SDS011;168;48.872;9.226;2023-08-24T06:59:09;10.70;;;9.60;;
359;SDS011;168;48.872;9.226;2023-08-24T07:01:38;10.13;;;9.17;;
359;SDS011;168;48.872;9.226;2023-08-24T07:04:06;11.20;;;10.20;;
359;SDS011;168;48.872;9.226;2023-08-24T07:06:33;9.83;;;8.90;;
359;SDS011;168;48.872;9.226;2023-08-24T07:09:01;9.03;;;8.23;;
359;SDS011;168;48.872;9.226;2023-08-24T07:11:33;9.77;;;8.67;;
359;SDS011;168;48.872;9.226;2023-08-24T07:14:00;16.33;;;9.10;;
359;SDS011;168;48.872;9.226;2023-08-24T07:16:28;9.63;;;8.83;;
359;SDS011;168;48.872;9.226;2023-08-24T07:18:55;9.97;;;9.07;;
359;SDS011;168;48.872;9.226;2023-08-24T07:21:23;13.83;;;10.30;;
359;SDS011;168;48.872;9.226;2023-08-24T07:23:50;9.33;;;8.53;;
359;SDS011;168;48.872;9.226;2023-08-24T07:26:17;9.57;;;8.53;;
359;SDS011;168;48.872;9.226;2023-08-24T07:28:46;8.93;;;8.03;;
359;SDS011;168;48.872;9.226;2023-08-24T07:31:13;8.13;;;7.43;;
359;SDS011;168;48.872;9.226;2023-08-24T07:33:40;9.57;;;8.73;;
359;SDS011;168;48.872;9.226;2023-08-24T07:36:09;10.23;;;8.90;;
359;SDS011;168;48.872;9.226;2023-08-24T07:38:37;9.90;;;8.90;;
359;SDS011;168;48.872;9.226;2023-08-24T07:41:04;9.70;;;8.83;;
359;SDS011;168;48.872;9.226;2023-08-24T07:43:32;9.93;;;9.00;;
359;SDS011;168;48.872;9.226;2023-08-24T07:46:00;10.10;;;8.57;;
359;SDS011;168;48.872;9.226;2023-08-24T07:48:28;10.07;;;9.17;;
359;SDS011;168;48.872;9.226;2023-08-24T07:50:56;10.17;;;9.20;;
359;SDS011;168;48.872;9.226;2023-08-24T07:53:23;9.30;;;8.60;;
359;SDS011;168;48.872;9.226;2023-08-24T07:55:50;9.77;;;8.87;;
359;SDS011;168;48.872;9.226;2023-08-24T07:58:20;11.40;;;9.43;;
359;SDS011;168;48.872;9.226;2023-08-24T08:00:49;10.37;;;9.30;;
359;SDS011;168;48.872;9.226;2023-08-24T08:03:18;10.13;;;9.13;;
359;SDS011;168;48.872;9.226;2023-08-24T08:05:46;9.73;;;8.83;;
359;SDS011;168;48.872;9.226;2023-08-24T08:08:14;9.63;;;8.70;;
359;SDS011;168;48.872;9.226;2023-08-24T08:10:41;9.40;;;8.60;;
359;SDS011;168;48.872;9.226;2023-08-24T08:13:09;9.43;;;8.53;;
359;SDS011;168;48.872;9.226;2023-08-24T08:15:37;8.43;;;7.73;;
359;SDS011;168;48.872;9.226;2023-08-24T08:18:04;7.97;;;7.17;;
359;SDS011;168;48.872;9.226;2023-08-24T08:20:33;8.10;;;7.33;;
359;SDS011;168;48.872;9.226;2023-08-24T08:23:01;9.53;;;7.63;;
359;SDS011;168;48.872;9.226;2023-08-24T08:25:28;7.30;;;6.70;;
359;SDS011;168;48.872;9.226;2023-08-24T08:27:55;7.00;;;6.37;;
359;SDS011;168;48.872;9.226;2023-08-24T08:30:22;8.20;;;7.50;;
359;SDS011;168;48.872;9.226;2023-08-24T08:32:50;8.20;;;7.50;;
359;SDS011;168;48.872;9.226;2023-08-24T08:35:18;8.30;;;7.50;;
359;SDS011;168;48.872;9.226;2023-08-24T08:37:46;8.93;;;8.13;;
359;SDS011;168;48.872;9.226;2023-08-24T08:40:15;7.73;;;7.03;;
359;SDS011;168;48.872;9.226;2023-08-24T08:42:43;8.17;;;7.57;;
359;SDS011;168;48.872;9.226;2023-08-24T08:45:12;9.00;;;8.20;;
359;SDS011;168;48.872;9.226;2023-08-24T08:47:39;7.83;;;7.13;;
359;SDS011;168;48.872;9.226;2023-08-24T08:50:08;8.63;;;7.83;;
359;SDS011;168;48.872;9.226;2023-08-24T08:52:36;8.40;;;7.60;;
359;SDS011;168;48.872;9.226;2023-08-24T08:55:05;8.23;;;7.53;;
359;SDS011;168;48.872;9.226;2023-08-24T08:57:35;9.27;;;8.37;;
359;SDS011;168;48.872;9.226;2023-08-24T09:00:05;8.53;;;7.73;;
359;SDS011;168;48.872;9.226;2023-08-24T09:02:35;8.70;;;7.90;;
359;SDS011;168;48.872;9.226;2023-08-24T09:05:03;10.40;;;7.87;;
359;SDS011;168;48.872;9.226;2023-08-24T09:07:32;10.13;;;7.37;;
359;SDS011;168;48.872;9.226;2023-08-24T09:10:01;8.60;;;7.83;;
359;SDS011;168;48.872;9.226;2023-08-24T09:12:32;8.57;;;7.77;;
359;SDS011;168;48.872;9.226;2023-08-24T09:14:59;10.00;;;7.30;;
359;SDS011;168;48.872;9.226;2023-08-24T09:17:29;7.50;;;6.90;;
359;SDS011;168;48.872;9.226;2023-08-24T09:19:57;7.67;;;6.97;;
359;SDS011;168;48.872;9.226;2023-08-24T09:22:25;9.40;;;7.63;;
359;SDS011;168;48.872;9.226;2023-08-24T09:24:53;8.30;;;7.30;;
359;SDS011;168;48.872;9.226;2023-08-24T09:27:21;7.57;;;6.70;;
359;SDS011;168;48.872;9.226;2023-08-24T09:29:50;7.87;;;7.27;;
359;SDS011;168;48.872;9.226;2023-08-24T09:32:22;7.87;;;7.00;;
359;SDS011;168;48.872;9.226;2023-08-24T09:34:49;7.87;;;7.13;;
359;SDS011;168;48.872;9.226;2023-08-24T09:37:17;8.67;;;7.40;;
359;SDS011;168;48.872;9.226;2023-08-24T09:39:45;11.33;;;7.40;;
359;SDS011;168;48.872;9.226;2023-08-24T09:42:13;9.10;;;7.80;;
359;SDS011;168;48.872;9.226;2023-08-24T09:44:45;9.60;;;7.60;;
359;SDS011;168;48.872;9.226;2023-08-24T09:47:14;7.80;;;7.10;;
359;SDS011;168;48.872;9.226;2023-08-24T09:49:41;7.63;;;6.30;;
359;SDS011;168;48.872;9.226;2023-08-24T09:52:09;7.70;;;7.00;;
359;SDS011;168;48.872;9.226;2023-08-24T09:54:37;8.30;;;7.50;;
359;SDS011;168;48.872;9.226;2023-08-24T09:57:06;7.67;;;6.97;;
359;SDS011;168;48.872;9.226;2023-08-24T09:59:36;7.27;;;6.43;;
359;SDS011;168;48.872;9.226;2023-08-24T10:02:10;9.17;;;6.80;;
359;SDS011;168;48.872;9.226;2023-08-24T10:04:47;7.23;;;6.53;;
359;SDS011;168;48.872;9.226;2023-08-24T10:07:19;7.97;;;7.27;;
359;SDS011;168;48.872;9.226;2023-08-24T10:09:54;7.30;;;6.60;;
359;SDS011;168;48.872;9.226;2023-08-24T10:12:31;7.87;;;6.97;;
359;SDS011;168;48.872;9.226;2023-08-24T10:15:03;8.10;;;7.50;;
359;SDS011;168;48.872;9.226;2023-08-24T10:17:34;8.37;;;7.50;;
359;SDS011;168;48.872;9.226;2023-08-24T10:20:05;7.80;;;7.20;;
359;SDS011;168;48.872;9.226;2023-08-24T10:22:35;7.13;;;6.53;;
359;SDS011;168;48.872;9.226;2023-08-24T10:25:04;8.23;;;7.43;;
359;SDS011;168;48.872;9.226;2023-08-24T10:27:33;9.40;;;7.57;;
359;SDS011;168;48.872;9.226;2023-08-24T10:30:01;8.30;;;7.60;;
359;SDS011;168;48.872;9.226;2023-08-24T10:32:29;8.60;;;7.80;;
359;SDS011;168;48.872;9.226;2023-08-24T10:34:58;7.90;;;7.20;;
359;SDS011;168;48.872;9.226;2023-08-24T10:37:26;8.30;;;7.53;;
359;SDS011;168;48.872;9.226;2023-08-24T10:39:54;7.20;;;6.60;;
359;SDS011;168;48.872;9.226;2023-08-24T10:42:21;11.33;;;8.90;;
359;SDS011;168;48.872;9.226;2023-08-24T10:44:49;7.47;;;6.77;;
359;SDS011;168;48.872;9.226;2023-08-24T10:47:17;7.73;;;7.00;;
359;SDS011;168;48.872;9.226;2023-08-24T10:49:56;8.40;;;7.47;;
359;SDS011;168;48.872;9.226;2023-08-24T10:52:30;7.80;;;7.13;;
359;SDS011;168;48.872;9.226;2023-08-24T10:55:00;8.93;;;7.80;;
359;SDS011;168;48.872;9.226;2023-08-24T10:57:34;8.70;;;7.80;;
359;SDS011;168;48.872;9.226;2023-08-24T11:00:03;8.50;;;7.70;;
359;SDS011;168;48.872;9.226;2023-08-24T11:02:42;8.37;;;7.70;;
359;SDS011;168;48.872;9.226;2023-08-24T11:05:18;8.10;;;7.50;;
359;SDS011;168;48.872;9.226;2023-08-24T11:07:50;7.20;;;6.60;;
359;SDS011;168;48.872;9.226;2023-08-24T11:10:19;8.70;;;7.90;;
359;SDS011;168;48.872;9.226;2023-08-24T11:15:40;9.00;;;8.30;;
359;SDS011;168;48.872;9.226;2023-08-24T11:18:12;8.70;;;8.00;;
359;SDS011;168;48.872;9.226;2023-08-24T11:20:52;8.33;;;7.53;;
359;SDS011;168;48.872;9.226;2023-08-24T11:23:21;8.07;;;7.37;;
359;SDS011;168;48.872;9.226;2023-08-24T11:25:49;8.23;;;7.63;;
359;SDS011;168;48.872;9.226;2023-08-24T11:28:20;7.47;;;6.77;;
359;SDS011;168;48.872;9.226;2023-08-24T11:30:49;9.73;;;7.83;;
359;SDS011;168;48.872;9.226;2023-08-24T11:33:17;8.20;;;7.50;;
359;SDS011;168;48.872;9.226;2023-08-24T11:35:56;8.37;;;7.67;;
359;SDS011;168;48.872;9.226;2023-08-24T11:38:23;8.10;;;7.50;;
359;SDS011;168;48.872;9.226;2023-08-24T11:40:51;9.33;;;8.53;;
359;SDS011;168;48.872;9.226;2023-08-24T11:43:24;8.80;;;7.90;;
359;SDS011;168;48.872;9.226;2023-08-24T11:45:53;9.30;;;7.70;;
359;SDS011;168;48.872;9.226;2023-08-24T11:48:23;8.33;;;7.63;;
359;SDS011;168;48.872;9.226;2023-08-24T11:50:51;8.97;;;8.17;;
359;SDS011;168;48.872;9.226;2023-08-24T11:53:21;8.73;;;8.03;;
359;SDS011;168;48.872;9.226;2023-08-24T11:55:51;9.10;;;8.37;;
359;SDS011;168;48.872;9.226;2023-08-24T11:58:19;9.53;;;8.80;;
359;SDS011;168;48.872;9.226;2023-08-24T12:00:47;8.00;;;7.30;;
359;SDS011;168;48.872;9.226;2023-08-24T12:03:15;8.33;;;7.63;;
359;SDS011;168;48.872;9.226;2023-08-24T12:05:42;9.60;;;8.70;;
359;SDS011;168;48.872;9.226;2023-08-24T12:08:10;8.70;;;7.90;;
359;SDS011;168;48.872;9.226;2023-08-24T12:10:42;8.33;;;7.73;;
359;SDS011;168;48.872;9.226;2023-08-24T12:13:11;8.83;;;8.10;;
359;SDS011;168;48.872;9.226;2023-08-24T12:15:40;8.53;;;7.90;;
359;SDS011;168;48.872;9.226;2023-08-24T12:18:08;8.83;;;8.10;;
359;SDS011;168;48.872;9.226;2023-08-24T12:20:36;8.60;;;7.90;;
359;SDS011;168;48.872;9.226;2023-08-24T12:23:05;8.73;;;8.13;;
359;SDS011;168;48.872;9.226;2023-08-24T12:25:35;9.03;;;8.30;;
359;SDS011;168;48.872;9.226;2023-08-24T12:28:11;8.57;;;7.80;;
359;SDS011;168;48.872;9.226;2023-08-24T12:30:43;8.40;;;7.60;;
359;SDS011;168;48.872;9.226;2023-08-24T12:33:20;8.67;;;7.97;;
359;SDS011;168;48.872;9.226;2023-08-24T12:35:48;8.53;;;7.80;;
359;SDS011;168;48.872;9.226;2023-08-24T12:38:16;8.60;;;7.90;;
359;SDS011;168;48.872;9.226;2023-08-24T12:40:44;9.43;;;8.63;;
359;SDS011;168;48.872;9.226;2023-08-24T12:43:13;9.60;;;8.60;;
359;SDS011;168;48.872;9.226;2023-08-24T12:45:40;9.13;;;8.23;;
359;SDS011;168;48.872;9.226;2023-08-24T12:48:08;8.00;;;7.40;;
359;SDS011;168;48.872;9.226;2023-08-24T12:50:37;8.73;;;8.03;;
359;SDS011;168;48.872;9.226;2023-08-24T12:53:04;8.07;;;7.43;;
359;SDS011;168;48.872;9.226;2023-08-24T12:55:32;8.60;;;7.90;;
359;SDS011;168;48.872;9.226;2023-08-24T12:58:00;8.20;;;7.53;;
359;SDS011;168;48.872;9.226;2023-08-24T13:00:29;10.70;;;7.73;;
359;SDS011;168;48.872;9.226;2023-08-24T13:02:57;9.80;;;8.07;;
359;SDS011;168;48.872;9.226;2023-08-24T13:05:24;8.13;;;7.33;;
359;SDS011;168;48.872;9.226;2023-08-24T13:07:51;8.80;;;8.10;;
359;SDS011;168;48.872;9.226;2023-08-24T13:10:19;7.80;;;7.20;;
359;SDS011;168;48.872;9.226;2023-08-24T13:12:46;9.20;;;8.30;;
359;SDS011;168;48.872;9.226;2023-08-24T13:15:15;9.07;;;8.27;;
359;SDS011;168;48.872;9.226;2023-08-24T13:17:44;8.20;;;7.60;;
359;SDS011;168;48.872;9.226;2023-08-24T13:20:26;7.87;;;7.27;;
359;SDS011;168;48.872;9.226;2023-08-24T13:23:56;7.73;;;7.10;;
359;SDS011;168;48.872;9.226;2023-08-24T13:36:40;8.70;;;7.90;;
359;SDS011;168;48.872;9.226;2023-08-24T13:39:13;9.10;;;7.50;;
359;SDS011;168;48.872;9.226;2023-08-24T13:42:05;8.73;;;7.70;;
359;SDS011;168;48.872;9.226;2023-08-24T13:45:20;8.47;;;7.70;;
359;SDS011;168;48.872;9.226;2023-08-24T13:48:17;7.50;;;6.80;;
359;SDS011;168;48.872;9.226;2023-08-24T13:51:02;8.57;;;7.50;;
359;SDS011;168;48.872;9.226;2023-08-24T14:00:55;7.47;;;6.70;;
359;SDS011;168;48.872;9.226;2023-08-24T14:03:22;7.40;;;6.73;;
359;SDS011;168;48.872;9.226;2023-08-24T14:05:54;8.97;;;7.07;;
359;SDS011;168;48.872;9.226;2023-08-24T14:08:23;10.30;;;6.70;;
359;SDS011;168;48.872;9.226;2023-08-24T14:10:51;8.53;;;6.50;;
359;SDS011;168;48.872;9.226;2023-08-24T14:13:18;9.77;;;7.10;;
359;SDS011;168;48.872;9.226;2023-08-24T14:15:47;7.63;;;6.80;;
359;SDS011;168;48.872;9.226;2023-08-24T14:18:15;8.10;;;6.93;;
359;SDS011;168;48.872;9.226;2023-08-24T14:20:42;8.00;;;7.30;;
359;SDS011;168;48.872;9.226;2023-08-24T14:23:10;7.73;;;6.60;;
359;SDS011;168;48.872;9.226;2023-08-24T14:25:39;6.67;;;6.00;;
359;SDS011;168;48.872;9.226;2023-08-24T14:28:06;7.20;;;6.50;;
359;SDS011;168;48.872;9.226;2023-08-24T14:30:34;9.13;;;7.60;;
359;SDS011;168;48.872;9.226;2023-08-24T14:33:01;8.50;;;7.03;;
359;SDS011;168;48.872;9.226;2023-08-24T14:35:29;8.13;;;7.30;;
359;SDS011;168;48.872;9.226;2023-08-24T14:37:56;8.47;;;6.83;;
359;SDS011;168;48.872;9.226;2023-08-24T14:40:24;8.50;;;7.23;;
359;SDS011;168;48.872;9.226;2023-08-24T14:42:52;8.00;;;6.60;;
359;SDS011;168;48.872;9.226;2023-08-24T14:45:20;7.67;;;6.97;;
359;SDS011;168;48.872;9.226;2023-08-24T14:47:47;8.60;;;7.47;;
359;SDS011;168;48.872;9.226;2023-08-24T14:50:15;8.70;;;6.90;;
359;SDS011;168;48.872;9.226;2023-08-24T14:52:42;8.00;;;7.20;;
359;SDS011;168;48.872;9.226;2023-08-24T14:55:09;9.70;;;7.60;;
359;SDS011;168;48.872;9.226;2023-08-24T14:57:38;8.53;;;7.67;;
359;SDS011;168;48.872;9.226;2023-08-24T15:00:08;7.97;;;7.00;;
359;SDS011;168;48.872;9.226;2023-08-24T15:02:36;9.10;;;8.20;;
359;SDS011;168;48.872;9.226;2023-08-24T15:05:03;12.20;;;7.70;;
359;SDS011;168;48.872;9.226;2023-08-24T15:07:31;10.80;;;6.93;;
359;SDS011;168;48.872;9.226;2023-08-24T15:09:58;18.47;;;8.90;;
359;SDS011;168;48.872;9.226;2023-08-24T15:12:26;10.87;;;8.70;;
359;SDS011;168;48.872;9.226;2023-08-24T15:14:56;13.40;;;9.13;;
359;SDS011;168;48.872;9.226;2023-08-24T15:17:26;19.00;;;17.13;;
359;SDS011;168;48.872;9.226;2023-08-24T15:19:55;20.43;;;15.90;;
359;SDS011;168;48.872;9.226;2023-08-24T15:22:23;14.27;;;11.07;;
359;SDS011;168;48.872;9.226;2023-08-24T15:24:54;13.00;;;11.70;;
359;SDS011;168;48.872;9.226;2023-08-24T15:27:21;14.73;;;13.33;;
359;SDS011;168;48.872;9.226;2023-08-24T15:29:48;14.40;;;13.10;;
359;SDS011;168;48.872;9.226;2023-08-24T15:32:17;11.47;;;10.27;;
359;SDS011;168;48.872;9.226;2023-08-24T15:34:45;9.87;;;8.87;;
359;SDS011;168;48.872;9.226;2023-08-24T15:37:13;11.13;;;10.00;;
359;SDS011;168;48.872;9.226;2023-08-24T15:39:41;10.77;;;9.77;;
359;SDS011;168;48.872;9.226;2023-08-24T15:42:08;10.50;;;9.37;;
359;SDS011;168;48.872;9.226;2023-08-24T15:44:35;9.07;;;7.00;;
359;SDS011;168;48.872;9.226;2023-08-24T15:47:03;8.20;;;6.90;;
359;SDS011;168;48.872;9.226;2023-08-24T15:49:30;8.80;;;7.60;;
359;SDS011;168;48.872;9.226;2023-08-24T15:51:59;8.70;;;6.77;;
359;SDS011;168;48.872;9.226;2023-08-24T15:54:26;7.00;;;6.40;;
359;SDS011;168;48.872;9.226;2023-08-24T15:56:54;8.90;;;7.00;;
359;SDS011;168;48.872;9.226;2023-08-24T15:59:21;9.30;;;8.40;;
359;SDS011;168;48.872;9.226;2023-08-24T16:01:48;9.60;;;8.70;;
359;SDS011;168;48.872;9.226;2023-08-24T16:04:16;15.13;;;9.67;;